Airfield :







YOU CAN JOIN US ON...

 
LOGIN :

Register | Disclaimer

   EN    FR    IT 

 









Legend :    VFR   Marginal VFR   IFR   Intensive IFR   Very Intensive IFR
Visi :
Ceiling :
>= 8 km
>= 3000ft
5 to 8 km
1000 to 3000 ft
1500m to 5 km
500 to 1000 ft
800 to 1500m
200 to 500 ft
< 800m
< 200 ft
Symbols :   Thunderstorms  Fog  Heavy snow  Heavy precipitations  Wind > 20 kt







- Airport Elevation : 172 ft
- IATA code : YYY


CYYY - Mont Joli

CURRENT METAR :
  • 210400Z 12005KT 090V150 2 1/2SM -RA BR OVC015 05/04 A3006 RMK SC8 SLP182

EXPIRED METARs :
  • 210346Z 12005KT 090V150 2 1/2SM -RA BR OVC016 05/04 A3006 RMK SC8 SLP184
  • 210333Z VRB02KT 10SM -RA OVC022 06/03 A3007 RMK SC8 SLP185
  • 210300Z VRB02KT 15SM SCT020 OVC033 06/03 A3008 RMK SC3SC5 SLP189
  • 210200Z 09004KT 030V120 15SM OVC035 06/04 A3010 RMK SC8 SLP196
  • 210142Z 11006KT 060V130 15SM OVC036 06/04 A3010 RMK SC8 SLP195

TAF AMD TAF CYYY
Valid from the 21 at 04:00 until the 21 at 14:00 UTC


210401Z 2104/2114 12006KT P6SM OVC030
TEMPO 2104/2106 21/2SM -RA BR OVC020
FM210600 12008KT P6SM OVC030
FM211200 17015G25KT P6SM BKN110 RMK NXT FCST BY 210800Z
CZUL FIR / North America



MET'MAP, your aeronautical weather chart ! - Copyright ORBIFLY December 2007 - Disclaimer

ORBIFLY MET'MAP TEAM :

Programming & Development : Alexandra Zaïnal
Concept & Development : Baudouin d'Aumeries
Co-Development & Prog : Marc-Olivier Méhu
Technical & hardware support : Manuel Goepfert

Contact : metmap@orbifly.com




SOURCES & CREDITS :

   NOAA